createdAt,value
2023-02-03T00:00:10.558Z,99.90
2023-02-03T00:02:38.855Z,99.90
2023-02-03T00:05:08.151Z,99.90
2023-02-03T00:07:36.433Z,99.90
2023-02-03T00:10:04.844Z,99.90
2023-02-03T00:12:33.113Z,99.90
2023-02-03T00:15:01.333Z,99.90
2023-02-03T00:17:30.975Z,99.90
2023-02-03T00:19:59.189Z,99.90
2023-02-03T00:22:27.419Z,99.90
2023-02-03T00:24:55.642Z,99.90
2023-02-03T00:27:24.039Z,99.90
2023-02-03T00:29:52.331Z,99.90
2023-02-03T00:32:20.740Z,99.90
2023-02-03T00:34:50.450Z,99.90
2023-02-03T00:37:18.699Z,99.90
2023-02-03T00:39:46.971Z,99.90
2023-02-03T00:42:15.254Z,99.90
2023-02-03T00:44:43.471Z,99.90
2023-02-03T00:47:11.760Z,99.90
2023-02-03T00:49:39.994Z,99.90
2023-02-03T00:52:09.635Z,99.90
2023-02-03T00:54:37.879Z,99.90
2023-02-03T00:57:06.092Z,99.90
2023-02-03T00:59:34.324Z,99.90
2023-02-03T01:02:02.576Z,99.90
2023-02-03T01:04:30.863Z,99.90
2023-02-03T01:06:59.961Z,99.90
2023-02-03T01:09:29.562Z,99.90
2023-02-03T01:11:57.870Z,99.90
2023-02-03T01:14:26.104Z,99.90
2023-02-03T01:16:54.442Z,99.90
2023-02-03T01:19:22.745Z,99.90
2023-02-03T01:21:51.060Z,99.90
2023-02-03T01:24:19.268Z,99.90
2023-02-03T01:26:48.950Z,99.90
2023-02-03T01:29:17.174Z,99.90
2023-02-03T01:31:45.613Z,99.90
2023-02-03T01:34:16.416Z,99.90
2023-02-03T01:36:46.055Z,99.90
2023-02-03T01:39:14.302Z,99.90
2023-02-03T01:41:42.674Z,99.90
2023-02-03T01:44:47.693Z,99.90
2023-02-03T01:47:19.721Z,99.90
2023-02-03T01:49:50.288Z,99.90
2023-02-03T01:52:18.535Z,99.90
2023-02-03T01:54:46.996Z,99.90
2023-02-03T01:57:17.189Z,99.90
2023-02-03T01:59:46.819Z,99.90
2023-02-03T02:02:15.132Z,99.90
2023-02-03T02:04:49.459Z,99.90
2023-02-03T02:07:17.862Z,99.90
2023-02-03T02:09:46.153Z,99.90
2023-02-03T02:12:14.540Z,99.90
2023-02-03T02:14:42.783Z,99.90
2023-02-03T02:17:17.485Z,99.90
2023-02-03T02:20:19.176Z,99.90
2023-02-03T02:22:57.034Z,99.90
2023-02-03T02:25:49.887Z,99.90
2023-02-03T02:28:37.182Z,99.90
2023-02-03T02:34:09.780Z,99.90
2023-02-03T02:36:40.421Z,99.90
2023-02-03T02:39:11.003Z,99.90
2023-02-03T02:41:42.342Z,99.90
2023-02-03T02:44:13.513Z,99.90
2023-02-03T02:46:43.852Z,99.90
2023-02-03T02:49:15.957Z,99.90
2023-02-03T02:51:45.309Z,99.90
2023-02-03T02:54:16.490Z,99.90
2023-02-03T02:56:44.733Z,99.90
2023-02-03T02:59:12.956Z,99.90
2023-02-03T03:01:41.650Z,99.90
2023-02-03T03:04:10.611Z,99.90
2023-02-03T03:06:42.572Z,99.90
2023-02-03T03:09:11.807Z,99.90
2023-02-03T03:11:44.290Z,99.90
2023-02-03T03:14:12.663Z,99.90
2023-02-03T03:16:41.510Z,99.90
2023-02-03T03:19:10.862Z,99.90
2023-02-03T03:21:43.755Z,99.90
2023-02-03T03:24:12.491Z,1.00
2023-02-03T03:26:43.068Z,99.90
2023-02-03T03:29:13.317Z,1.00
2023-02-03T03:31:41.786Z,1.00
2023-02-03T03:34:10.312Z,99.90
2023-02-03T03:36:43.657Z,99.90
2023-02-03T03:39:14.870Z,99.90
2023-02-03T03:41:44.915Z,99.90
2023-02-03T03:44:14.601Z,99.90
2023-02-03T03:46:46.049Z,99.90
2023-02-03T03:49:14.390Z,99.90
2023-02-03T03:51:46.107Z,99.90
2023-02-03T03:54:15.766Z,99.90
2023-02-03T03:56:47.637Z,99.90
2023-02-03T03:59:16.023Z,99.90
2023-02-03T04:01:44.452Z,99.90
2023-02-03T04:04:12.744Z,99.90
2023-02-03T04:06:40.988Z,99.90
2023-02-03T04:09:10.603Z,99.90
2023-02-03T04:11:56.567Z,99.90
2023-02-03T04:14:24.794Z,99.90
2023-02-03T04:16:53.051Z,99.90
2023-02-03T04:19:21.291Z,99.90
2023-02-03T04:21:49.541Z,99.90
2023-02-03T04:24:19.163Z,99.90
2023-02-03T04:26:47.412Z,99.90
2023-02-03T04:29:15.664Z,99.90
2023-02-03T04:31:43.988Z,99.90
2023-02-03T04:34:12.428Z,99.90
2023-02-03T04:36:40.690Z,99.90
2023-02-03T04:39:08.890Z,99.90
2023-02-03T04:41:38.574Z,99.90
2023-02-03T04:44:06.867Z,99.90
2023-02-03T04:46:35.540Z,99.90
2023-02-03T04:49:03.862Z,99.90
2023-02-03T04:51:32.100Z,99.90
2023-02-03T04:54:00.327Z,99.90
2023-02-03T04:56:28.622Z,99.90
2023-02-03T04:58:58.257Z,99.90
2023-02-03T05:01:26.677Z,99.90
2023-02-03T05:03:55.012Z,99.90
2023-02-03T05:06:25.398Z,99.90
2023-02-03T05:08:53.714Z,99.90
2023-02-03T05:11:21.969Z,99.90
2023-02-03T05:13:50.190Z,99.90
2023-02-03T05:16:19.926Z,99.90
2023-02-03T05:18:48.219Z,99.90
2023-02-03T05:21:16.556Z,99.90
2023-02-03T05:23:44.801Z,99.90
2023-02-03T05:26:13.052Z,99.90
2023-02-03T05:28:41.268Z,99.90
2023-02-03T05:31:09.641Z,99.90
2023-02-03T05:33:39.328Z,99.90
2023-02-03T05:36:08.304Z,99.90
2023-02-03T05:38:36.640Z,99.90
2023-02-03T05:41:22.562Z,99.90
2023-02-03T05:43:50.887Z,99.90
2023-02-03T05:46:19.845Z,99.90
2023-02-03T05:48:49.451Z,99.90
2023-02-03T05:51:17.710Z,99.90
2023-02-03T05:53:45.960Z,99.90
2023-02-03T05:56:14.242Z,99.90
2023-02-03T05:58:42.453Z,99.90
2023-02-03T06:01:11.910Z,99.90
2023-02-03T06:03:40.330Z,99.90
2023-02-03T06:06:10.124Z,99.90
2023-02-03T06:08:38.383Z,99.90
2023-02-03T06:11:06.689Z,99.90
2023-02-03T06:13:34.994Z,99.90
2023-02-03T06:16:03.332Z,99.90
2023-02-03T06:18:31.586Z,99.90
2023-02-03T06:20:59.896Z,99.90
2023-02-03T06:23:29.516Z,99.90
2023-02-03T06:26:00.116Z,99.90
2023-02-03T06:28:28.401Z,99.90
2023-02-03T06:30:56.811Z,99.90
2023-02-03T06:33:25.385Z,99.90
2023-02-03T06:35:54.846Z,99.90
2023-02-03T06:38:23.110Z,99.90
2023-02-03T06:40:52.792Z,99.90
2023-02-03T06:43:21.067Z,99.90
2023-02-03T06:45:49.499Z,99.90
2023-02-03T06:48:17.760Z,99.90
2023-02-03T06:50:48.660Z,99.90
2023-02-03T06:53:17.141Z,99.90
2023-02-03T06:55:45.435Z,99.90
2023-02-03T06:58:15.105Z,99.90
2023-02-03T07:00:43.419Z,99.90
2023-02-03T07:03:11.667Z,99.90
2023-02-03T07:05:40.941Z,99.90
2023-02-03T07:08:09.220Z,99.90
2023-02-03T07:10:37.588Z,99.90
2023-02-03T07:13:06.201Z,99.90
2023-02-03T07:15:35.984Z,99.90
2023-02-03T07:18:04.346Z,99.90
2023-02-03T07:20:33.108Z,99.90
2023-02-03T07:23:01.344Z,99.90
2023-02-03T07:25:29.640Z,99.90
2023-02-03T07:27:57.965Z,99.90
2023-02-03T07:30:26.461Z,99.90
2023-02-03T07:32:56.342Z,99.90
2023-02-03T07:35:24.604Z,99.90
2023-02-03T07:37:52.834Z,99.90
2023-02-03T07:40:21.197Z,99.90
2023-02-03T07:42:49.884Z,99.90
2023-02-03T07:45:18.759Z,99.90
2023-02-03T07:47:47.077Z,99.90
2023-02-03T07:50:16.751Z,99.90
2023-02-03T07:52:45.014Z,99.90
2023-02-03T07:55:13.229Z,99.90
2023-02-03T07:57:43.769Z,99.90
2023-02-03T08:00:14.119Z,99.90
2023-02-03T08:02:42.626Z,99.90
2023-02-03T08:05:11.039Z,99.90
2023-02-03T08:07:40.743Z,99.90
2023-02-03T08:10:09.761Z,99.90
2023-02-03T08:12:38.088Z,99.90
2023-02-03T08:15:07.283Z,99.90
2023-02-03T08:17:35.526Z,99.90
2023-02-03T08:20:03.825Z,99.90
2023-02-03T08:22:32.231Z,99.90
2023-02-03T08:25:01.858Z,99.90
2023-02-03T08:27:30.120Z,99.90
2023-02-03T08:29:58.372Z,99.90
2023-02-03T08:32:26.661Z,99.90
2023-02-03T08:34:54.962Z,99.90
2023-02-03T08:37:24.471Z,99.90
2023-02-03T08:39:52.767Z,99.90
2023-02-03T08:42:22.395Z,99.90
2023-02-03T08:44:50.656Z,99.90
2023-02-03T08:47:18.885Z,99.90
2023-02-03T08:49:47.179Z,99.90
2023-02-03T08:52:17.946Z,99.90
2023-02-03T08:54:47.152Z,1.00
2023-02-03T08:57:15.458Z,1.00
2023-02-03T08:59:45.152Z,1.00
2023-02-03T09:02:15.884Z,1.00
2023-02-03T09:04:44.742Z,1.00
2023-02-03T09:07:13.477Z,1.00
2023-02-03T09:09:41.881Z,1.00
2023-02-03T09:12:12.349Z,11.30
2023-02-03T09:14:40.603Z,30.40
2023-02-03T09:17:10.777Z,99.90
2023-02-03T09:19:39.033Z,99.90
2023-02-03T09:22:07.307Z,99.90
2023-02-03T09:24:35.741Z,99.90
2023-02-03T09:27:04.020Z,99.90
2023-02-03T09:29:32.313Z,99.90
2023-02-03T09:32:01.185Z,99.90
2023-02-03T09:34:30.994Z,99.90
2023-02-03T09:36:59.229Z,1.00
2023-02-03T09:39:27.462Z,1.00
2023-02-03T09:42:09.330Z,1.00
2023-02-03T09:44:41.088Z,1.00
2023-02-03T09:47:12.668Z,24.50
2023-02-03T09:49:43.858Z,1.00
2023-02-03T09:52:14.537Z,68.90
2023-02-03T09:54:44.661Z,99.90
2023-02-03T09:57:16.216Z,99.90
2023-02-03T09:59:44.408Z,99.90
2023-02-03T10:02:32.196Z,99.90
2023-02-03T10:05:05.704Z,99.90
2023-02-03T10:07:36.564Z,99.90
2023-02-03T10:10:09.067Z,99.90
2023-02-03T10:12:54.832Z,99.90
2023-02-03T10:15:35.858Z,99.90
2023-02-03T10:18:05.911Z,99.90
2023-02-03T10:20:37.238Z,99.90
2023-02-03T10:23:08.347Z,99.90
2023-02-03T10:25:39.762Z,99.90
2023-02-03T10:28:12.236Z,99.90
2023-02-03T10:30:45.455Z,1.00
2023-02-03T10:33:16.363Z,99.90
2023-02-03T10:35:49.720Z,99.90
2023-02-03T10:38:23.153Z,1.00
2023-02-03T10:40:51.467Z,1.00
2023-02-03T10:43:37.409Z,1.00
2023-02-03T10:46:05.978Z,1.00
2023-02-03T10:48:34.333Z,1.00
2023-02-03T10:51:04.059Z,1.00
2023-02-03T10:53:34.591Z,1.00
2023-02-03T10:56:04.757Z,1.00
2023-02-03T10:58:34.841Z,1.00
2023-02-03T11:01:08.716Z,99.90
2023-02-03T11:03:36.997Z,1.00
2023-02-03T11:06:08.852Z,1.00
2023-02-03T11:08:37.749Z,1.00
2023-02-03T11:11:07.252Z,1.00
2023-02-03T11:13:35.496Z,1.00
2023-02-03T11:16:04.894Z,1.00
2023-02-03T11:18:48.440Z,1.00
2023-02-03T11:21:19.242Z,1.00
2023-02-03T11:23:50.200Z,21.10
2023-02-03T11:26:21.078Z,99.90
2023-02-03T11:28:50.380Z,99.90
2023-02-03T11:31:20.294Z,99.90
2023-02-03T11:33:50.266Z,1.00
2023-02-03T11:36:20.355Z,1.00
2023-02-03T11:38:48.764Z,1.00
2023-02-03T11:41:18.372Z,99.90
2023-02-03T11:43:47.022Z,99.90
2023-02-03T11:46:15.371Z,1.00
2023-02-03T11:48:49.619Z,1.00
2023-02-03T11:51:24.026Z,1.00
2023-02-03T11:54:01.635Z,99.90
2023-02-03T11:56:39.845Z,28.60
2023-02-03T11:59:22.930Z,99.90
2023-02-03T12:02:13.586Z,99.90
2023-02-03T12:05:01.180Z,1.00
2023-02-03T12:07:37.564Z,1.00
2023-02-03T12:10:09.391Z,1.00
2023-02-03T12:12:52.333Z,99.90
2023-02-03T12:15:28.474Z,1.00
2023-02-03T12:18:06.835Z,24.50
2023-02-03T12:20:56.151Z,99.90
2023-02-03T12:23:32.246Z,99.90
2023-02-03T12:26:11.135Z,1.00
2023-02-03T12:28:57.990Z,1.00
2023-02-03T12:31:29.637Z,1.00
2023-02-03T12:34:02.603Z,99.90
2023-02-03T12:36:31.911Z,99.90
2023-02-03T12:39:03.487Z,99.90
2023-02-03T12:41:33.277Z,99.90
2023-02-03T12:44:02.848Z,99.90
2023-02-03T12:46:32.520Z,99.90
2023-02-03T12:49:02.525Z,1.00
2023-02-03T12:51:34.737Z,1.00
2023-02-03T12:54:07.258Z,1.00
2023-02-03T12:56:39.993Z,1.00
2023-02-03T12:59:14.075Z,1.00
2023-02-03T13:01:44.684Z,1.00
2023-02-03T13:04:15.592Z,1.00
2023-02-03T13:06:47.236Z,1.00
2023-02-03T13:09:23.987Z,1.00
2023-02-03T13:11:54.288Z,1.00
2023-02-03T13:14:23.890Z,1.00
2023-02-03T13:16:54.384Z,1.00
2023-02-03T13:19:23.464Z,26.70
2023-02-03T13:21:52.839Z,99.90
2023-02-03T13:24:22.520Z,99.90
2023-02-03T13:27:07.117Z,99.90
2023-02-03T13:30:02.107Z,99.90
2023-02-03T13:32:44.402Z,99.90
2023-02-03T13:35:34.776Z,99.90
2023-02-03T13:38:18.311Z,99.90
2023-02-03T13:40:52.847Z,99.90
2023-02-03T13:43:37.210Z,99.90
2023-02-03T13:46:08.869Z,99.90
2023-02-03T13:48:37.829Z,1.00
2023-02-03T13:51:08.533Z,1.00
2023-02-03T13:53:37.790Z,1.00
2023-02-03T13:56:07.833Z,1.00
2023-02-03T13:58:37.170Z,1.00
2023-02-03T14:01:08.074Z,1.00
2023-02-03T14:03:43.403Z,1.00
2023-02-03T14:07:00.969Z,1.00
2023-02-03T14:09:39.976Z,1.00
2023-02-03T14:12:42.735Z,99.90
2023-02-03T14:15:30.863Z,1.00
2023-02-03T14:18:04.258Z,1.00
2023-02-03T14:20:58.238Z,1.00
2023-02-03T14:23:35.416Z,1.00
2023-02-03T14:26:03.714Z,1.00
2023-02-03T14:28:40.230Z,99.90
2023-02-03T14:31:12.803Z,99.90
2023-02-03T14:34:12.965Z,99.90
2023-02-03T14:36:59.563Z,1.00
2023-02-03T14:39:58.911Z,1.00
2023-02-03T14:43:04.856Z,99.90
2023-02-03T14:46:05.484Z,99.90
2023-02-03T14:48:43.380Z,1.00
2023-02-03T14:51:15.063Z,1.00
2023-02-03T14:53:54.781Z,1.00
2023-02-03T14:56:28.837Z,1.00
2023-02-03T14:58:58.705Z,1.00
2023-02-03T15:01:53.431Z,1.00
2023-02-03T15:04:23.318Z,1.00
2023-02-03T15:06:52.444Z,1.00
2023-02-03T15:09:24.718Z,1.00
2023-02-03T15:11:53.018Z,1.00
2023-02-03T15:14:25.842Z,1.00
2023-02-03T15:16:57.612Z,1.00
2023-02-03T15:19:28.018Z,1.00
2023-02-03T15:21:56.430Z,1.00
2023-02-03T15:24:25.983Z,1.00
2023-02-03T15:26:55.215Z,1.00
2023-02-03T15:29:27.373Z,1.00
2023-02-03T15:32:01.055Z,1.00
2023-02-03T15:34:30.712Z,1.00
2023-02-03T15:37:00.147Z,1.00
2023-02-03T15:39:38.714Z,1.00
2023-02-03T15:42:08.537Z,1.00
2023-02-03T15:44:39.557Z,1.00
2023-02-03T15:47:19.124Z,1.00
2023-02-03T15:49:47.459Z,1.00
2023-02-03T15:52:17.412Z,1.00
2023-02-03T15:54:46.724Z,1.00
2023-02-03T15:57:18.441Z,1.00
2023-02-03T15:59:50.268Z,1.00
2023-02-03T16:02:21.066Z,1.00
2023-02-03T16:04:50.284Z,1.00
2023-02-03T16:07:19.713Z,1.00
2023-02-03T16:09:48.006Z,1.00
2023-02-03T16:12:20.320Z,1.00
2023-02-03T16:14:48.556Z,1.00
2023-02-03T16:17:23.977Z,1.00
2023-02-03T16:19:52.573Z,1.00
2023-02-03T16:22:31.629Z,1.00
2023-02-03T16:25:13.469Z,1.00
2023-02-03T16:27:41.860Z,1.00
2023-02-03T16:30:41.316Z,1.00
2023-02-03T16:33:33.391Z,1.00
2023-02-03T16:36:21.349Z,1.00
2023-02-03T16:39:09.681Z,1.00
2023-02-03T16:41:55.580Z,1.00
2023-02-03T16:44:41.233Z,1.00
2023-02-03T16:47:40.039Z,1.00
2023-02-03T16:50:38.262Z,1.00
2023-02-03T16:53:07.361Z,1.00
2023-02-03T16:55:35.775Z,1.00
2023-02-03T16:58:04.092Z,1.00
2023-02-03T17:00:32.437Z,1.00
2023-02-03T17:03:00.873Z,1.00
2023-02-03T17:05:30.888Z,1.00
2023-02-03T17:07:59.309Z,1.00
2023-02-03T17:10:27.708Z,1.00
2023-02-03T17:12:55.990Z,1.00
2023-02-03T17:15:24.359Z,1.00
2023-02-03T17:17:53.018Z,1.00
2023-02-03T17:20:21.241Z,1.00
2023-02-03T17:22:53.397Z,1.00
2023-02-03T17:25:22.020Z,1.00
2023-02-03T17:27:50.333Z,1.00
2023-02-03T17:30:18.894Z,1.00
2023-02-03T17:32:47.170Z,1.00
2023-02-03T17:35:15.519Z,1.00
2023-02-03T17:37:43.804Z,1.00
2023-02-03T17:54:06.817Z,1.00
2023-02-03T17:56:36.662Z,1.00
2023-02-03T17:59:05.670Z,1.00
2023-02-03T18:01:34.011Z,1.00
2023-02-03T18:04:03.392Z,1.00
2023-02-03T18:06:33.190Z,1.00
2023-02-03T18:09:02.670Z,1.00
2023-02-03T18:11:31.341Z,1.00
2023-02-03T18:14:01.075Z,1.00
2023-02-03T18:16:32.589Z,1.00
2023-02-03T18:19:01.200Z,1.00
2023-02-03T18:21:29.543Z,1.00
2023-02-03T18:23:59.961Z,1.00
2023-02-03T18:26:29.420Z,1.00
2023-02-03T18:28:57.693Z,1.00
2023-02-03T18:31:27.678Z,1.00
2023-02-03T18:33:56.069Z,1.00
2023-02-03T18:36:24.449Z,1.00
2023-02-03T18:38:52.720Z,1.00
2023-02-03T18:41:22.172Z,1.00
2023-02-03T18:43:50.487Z,1.00
2023-02-03T18:46:19.707Z,1.00
2023-02-03T18:48:49.485Z,1.00
2023-02-03T18:51:19.045Z,1.00
2023-02-03T18:53:49.138Z,1.00
2023-02-03T18:56:18.488Z,1.00
2023-02-03T18:58:46.941Z,1.00
2023-02-03T19:01:23.098Z,1.00
2023-02-03T19:03:52.891Z,1.00
2023-02-03T19:06:21.394Z,1.00
2023-02-03T19:08:50.341Z,1.00
2023-02-03T19:11:18.852Z,1.00
2023-02-03T19:13:47.279Z,1.00
2023-02-03T19:16:16.995Z,1.00
2023-02-03T19:18:45.426Z,1.00
2023-02-03T19:21:15.345Z,1.00
2023-02-03T19:23:43.751Z,1.00
2023-02-03T19:26:12.249Z,1.00
2023-02-03T19:28:40.726Z,1.00
2023-02-03T19:31:10.169Z,1.00
2023-02-03T19:33:38.733Z,1.00
2023-02-03T19:36:07.879Z,1.00
2023-02-03T19:38:37.645Z,1.00
2023-02-03T19:41:07.503Z,1.00
2023-02-03T19:43:35.901Z,1.00
2023-02-03T19:46:04.422Z,1.00
2023-02-03T19:48:32.833Z,1.00
2023-02-03T19:51:01.144Z,1.00
2023-02-03T19:53:29.530Z,1.00
2023-02-03T19:55:59.259Z,1.00
2023-02-03T19:58:27.589Z,1.00
2023-02-03T20:00:56.001Z,1.00
2023-02-03T20:03:24.482Z,1.00
2023-02-03T20:05:53.592Z,1.00
2023-02-03T20:08:22.101Z,1.00
2023-02-03T20:10:51.516Z,1.00
2023-02-03T20:13:21.280Z,1.00
2023-02-03T20:15:49.658Z,1.00
2023-02-03T20:18:17.911Z,1.00
2023-02-03T20:20:50.542Z,1.00
2023-02-03T20:23:18.923Z,1.00
2023-02-03T20:25:49.526Z,1.00
2023-02-03T20:28:18.320Z,1.00
2023-02-03T20:30:48.088Z,1.00
2023-02-03T20:33:16.425Z,1.00
2023-02-03T20:35:44.840Z,1.00
2023-02-03T20:38:15.621Z,1.00
2023-02-03T20:40:44.008Z,1.00
2023-02-03T20:43:16.476Z,1.00
2023-02-03T20:45:44.802Z,1.00
2023-02-03T20:48:15.027Z,1.00
2023-02-03T20:50:47.265Z,1.00
2023-02-03T20:53:20.135Z,1.00
2023-02-03T20:55:48.538Z,1.00
2023-02-03T20:58:19.352Z,1.00
2023-02-03T21:00:48.515Z,1.00
2023-02-03T21:03:36.383Z,1.00
2023-02-03T21:06:05.737Z,1.00
2023-02-03T21:08:34.068Z,1.00
2023-02-03T21:11:02.419Z,1.00
2023-02-03T21:13:31.337Z,1.00
2023-02-03T21:16:02.730Z,1.00
2023-02-03T21:18:35.393Z,1.00
2023-02-03T21:21:03.952Z,1.00
2023-02-03T21:23:37.114Z,1.00
2023-02-03T21:26:16.181Z,1.00
2023-02-03T21:28:44.491Z,1.00
2023-02-03T21:31:24.816Z,1.00
2023-02-03T21:33:54.863Z,1.00
2023-02-03T21:36:24.137Z,1.00
2023-02-03T21:38:53.604Z,1.00
2023-02-03T21:41:22.767Z,1.00
2023-02-03T21:43:52.243Z,1.00
2023-02-03T21:46:21.410Z,1.00
2023-02-03T21:48:51.258Z,1.00
2023-02-03T21:51:23.118Z,1.00
2023-02-03T21:53:56.445Z,1.00
2023-02-03T21:56:25.942Z,1.00
2023-02-03T21:58:57.365Z,1.00
2023-02-03T22:01:26.295Z,1.00
2023-02-03T22:03:55.199Z,1.00
2023-02-03T22:06:29.055Z,1.00
2023-02-03T22:08:58.447Z,1.00
2023-02-03T22:11:27.465Z,1.00
2023-02-03T22:13:55.805Z,1.20
2023-02-03T22:16:24.235Z,3.30
2023-02-03T22:18:52.683Z,3.00
2023-02-03T22:21:21.002Z,4.40
2023-02-03T22:23:50.644Z,5.40
2023-02-03T22:26:19.108Z,5.30
2023-02-03T22:28:47.366Z,5.90
2023-02-03T22:31:15.757Z,6.50
2023-02-03T22:33:44.187Z,4.10
2023-02-03T22:36:12.620Z,1.90
2023-02-03T22:38:40.994Z,4.20
2023-02-03T22:41:11.965Z,1.00
2023-02-03T22:43:40.349Z,1.00
2023-02-03T22:46:08.764Z,1.00
2023-02-03T22:48:37.067Z,1.00
2023-02-03T22:51:05.551Z,1.00
2023-02-03T22:53:34.947Z,2.00
2023-02-03T22:56:03.479Z,1.00
2023-02-03T22:58:33.140Z,1.00
2023-02-03T23:01:01.431Z,1.00
2023-02-03T23:03:32.814Z,1.00
2023-02-03T23:06:01.273Z,1.00
2023-02-03T23:08:29.530Z,4.40
2023-02-03T23:10:57.835Z,3.90
2023-02-03T23:13:26.126Z,1.00
2023-02-03T23:15:55.945Z,1.00
2023-02-03T23:18:24.313Z,1.40
2023-02-03T23:20:52.615Z,2.70
2023-02-03T23:23:20.896Z,3.60
2023-02-03T23:25:49.194Z,2.00
2023-02-03T23:28:17.514Z,2.90
2023-02-03T23:30:46.019Z,1.00
2023-02-03T23:33:15.739Z,1.00
2023-02-03T23:35:45.915Z,1.00
2023-02-03T23:38:14.418Z,1.00
2023-02-03T23:40:42.730Z,1.00
2023-02-03T23:43:10.981Z,1.00
2023-02-03T23:45:39.303Z,1.00
2023-02-03T23:48:07.685Z,1.00
2023-02-03T23:50:37.442Z,1.00
2023-02-03T23:53:05.739Z,1.00
2023-02-03T23:55:34.024Z,1.00
2023-02-03T23:58:02.283Z,1.00
